Bookmark and Share
Track history (hours):
 

Mariq

Last reported at 2014-Apr-24 01:21 UTC. Time now 2014-Apr-24 14:02 UTC.
Position N 36°60' E 027°09'.

Length 57 m.

Type: Tanker. MMSI: 239758424.

NotesDate/timePositionNaut miles runAvg speedWind from/ knotsBaromVisibWave heightAir tempDewpointWater temp
2014-Apr-24 01:21N 36°60' E 027°09'8 9.6
2014-Apr-24 00:33N 36°56' E 027°17'11 8.1
2014-Apr-23 23:10N 36°46' E 027°22'6 9.0
2014-Apr-23 22:33N 36°40' E 027°22'10 9.4
2014-Apr-23 21:32N 36°36' E 027°33'9 9.2
2014-Apr-23 20:33N 36°33' E 027°43'9 9.3
2014-Apr-23 19:33N 36°30' E 027°54'  
2014-Apr-18 10:21N 37°15' E 026°19'8 9.5
2014-Apr-18 09:33N 37°15' E 026°09'10 9.5
2014-Apr-18 08:33N 37°15' E 025°57'9 9.5
2014-Apr-18 07:33N 37°15' E 025°45'10 9.7
2014-Apr-18 06:33N 37°14' E 025°33'10 9.6
2014-Apr-18 05:33N 37°15' E 025°21'9 9.5
2014-Apr-18 04:33N 37°18' E 025°09'9 9.5
2014-Apr-18 03:33N 37°20' E 024°58'9 9.4
2014-Apr-18 02:33N 37°23' E 024°46'10 9.6
2014-Apr-18 01:30N 37°27' E 024°35'9 9.6
2014-Apr-18 00:33N 37°30' E 024°24'9 0.6
2014-Apr-17 11:18N 37°32' E 024°14'7 9.3
2014-Apr-17 10:31N 37°30' E 024°22'10 9.5
2014-Apr-17 09:30N 37°28' E 024°34'9 9.7
2014-Apr-17 08:33N 37°24' E 024°45'10 9.7
2014-Apr-17 07:33N 37°21' E 024°56'9 9.4
2014-Apr-17 06:33N 37°18' E 025°08'1010.0
2014-Apr-17 05:33N 37°16' E 025°20'20 9.8
2014-Apr-17 03:33N 37°08' E 025°43'5 4.6
2014-Apr-17 02:33N 37°06' E 025°48'0 0.0
2014-Apr-17 01:33N 37°06' E 025°48'0 0.0
2014-Apr-17 00:33N 37°06' E 025°48'0 0.0
2014-Apr-16 23:33N 37°06' E 025°48'0 0.0
2014-Apr-16 22:33N 37°06' E 025°48'4 4.5
2014-Apr-16 21:33N 37°03' E 025°43'10 9.9
2014-Apr-16 20:33N 36°57' E 025°34'5 5.2
2014-Apr-16 19:33N 36°52' E 025°31'0 0.0
2014-Apr-16 18:33N 36°52' E 025°31'0 0.0
2014-Apr-16 17:33N 36°52' E 025°31'0 0.0
2014-Apr-16 16:33N 36°52' E 025°31'1 0.8
2014-Apr-16 15:32N 36°52' E 025°30'6 6.3
2014-Apr-16 14:33N 36°56' E 025°36'0 0.0
2014-Apr-16 13:33N 36°56' E 025°36'0 0.0
2014-Apr-16 12:33N 36°56' E 025°36'0 0.0
2014-Apr-16 11:33N 36°56' E 025°36'0 0.0
2014-Apr-16 10:33N 36°56' E 025°36'0 0.0
2014-Apr-16 09:30N 36°56' E 025°36'0 0.0
2014-Apr-16 08:33N 36°56' E 025°36'0 0.0
2014-Apr-16 07:33N 36°56' E 025°36'0 0.0
2014-Apr-16 06:33N 36°56' E 025°36'0 0.0
2014-Apr-16 05:33N 36°56' E 025°36'0 0.0
2014-Apr-16 04:33N 36°56' E 025°36'5 5.1
2014-Apr-16 03:33N 36°54' E 025°30'9 9.3
2014-Apr-16 02:33N 36°54' E 025°19'9 9.1
2014-Apr-16 01:33N 36°55' E 025°07'9 9.0
2014-Apr-16 00:33N 36°56' E 024°56'9 8.6
2014-Apr-15 23:33N 37°01' E 024°47'9 8.7
2014-Apr-15 22:31N 37°08' E 024°40'9 8.7
2014-Apr-15 21:27N 37°14' E 024°31'8 8.5
2014-Apr-15 20:33N 37°17' E 024°22'11 8.4
2014-Apr-15 19:16N 37°26' E 024°15'7 8.4
2014-Apr-15 18:27N 37°32' E 024°10'21 1.4
2014-Apr-15 03:34N 37°27' E 024°36'10 9.9
2014-Apr-15 02:33N 37°22' E 024°48'10 9.8
2014-Apr-15 01:34N 37°21' E 024°60'1010.0
2014-Apr-15 00:34N 37°20' E 025°13'1010.2
2014-Apr-14 23:34N 37°20' E 025°25'2010.1
2014-Apr-14 21:34N 37°18' E 025°51'1010.0
2014-Apr-14 20:34N 37°18' E 026°03'1010.1
2014-Apr-14 19:34N 37°17' E 026°16'10 9.7
2014-Apr-14 18:34N 37°16' E 026°28'5 5.2
2014-Apr-14 17:31N 37°19' E 026°33'0 0.1
2014-Apr-14 15:32N 37°19' E 026°33'0 0.0
2014-Apr-14 10:31N 37°19' E 026°33'  

Dump ship's entire track history

sailing weather and tide predictions

Mariq — SVA2152 — position and weather